createdAt,value
2023-04-13T00:00:22.014Z,4.00
2023-04-13T00:02:25.319Z,4.80
2023-04-13T00:04:31.176Z,4.10
2023-04-13T00:06:33.931Z,4.40
2023-04-13T00:08:36.870Z,4.40
2023-04-13T00:10:41.535Z,5.53
2023-04-13T00:12:47.754Z,4.50
2023-04-13T00:14:51.464Z,4.43
2023-04-13T00:16:54.357Z,4.37
2023-04-13T00:18:57.174Z,4.40
2023-04-13T00:21:00.647Z,4.40
2023-04-13T00:23:03.617Z,4.40
2023-04-13T00:25:07.231Z,5.30
2023-04-13T00:27:10.922Z,4.80
2023-04-13T00:29:15.585Z,5.00
2023-04-13T00:31:18.484Z,4.83
2023-04-13T00:33:21.400Z,4.27
2023-04-13T00:35:25.250Z,4.53
2023-04-13T00:37:29.341Z,4.93
2023-04-13T00:39:32.721Z,5.00
2023-04-13T00:41:35.677Z,4.80
2023-04-13T00:43:38.581Z,4.43
2023-04-13T00:45:42.828Z,5.80
2023-04-13T00:47:47.456Z,4.70
2023-04-13T00:49:50.336Z,5.10
2023-04-13T00:51:53.138Z,4.90
2023-04-13T00:53:56.253Z,4.90
2023-04-13T00:55:59.602Z,5.10
2023-04-13T00:58:02.443Z,4.80
2023-04-13T01:00:09.257Z,4.73
2023-04-13T01:02:13.487Z,5.53
2023-04-13T01:04:18.730Z,5.23
2023-04-13T01:06:28.143Z,4.37
2023-04-13T01:08:37.109Z,4.97
2023-04-13T01:10:46.773Z,4.80
2023-04-13T01:12:57.875Z,5.60
2023-04-13T01:15:06.723Z,5.37
2023-04-13T01:17:15.415Z,5.37
2023-04-13T01:19:24.158Z,5.37
2023-04-13T01:21:31.381Z,5.17
2023-04-13T01:23:51.697Z,5.60
2023-04-13T01:25:57.732Z,5.17
2023-04-13T01:28:05.476Z,5.07
2023-04-13T01:30:10.730Z,5.40
2023-04-13T01:32:15.072Z,4.67
2023-04-13T01:34:18.351Z,5.20
2023-04-13T01:36:21.692Z,4.40
2023-04-13T01:38:25.640Z,4.40
2023-04-13T01:40:30.926Z,3.50
2023-04-13T01:42:33.712Z,3.33
2023-04-13T01:44:38.129Z,3.13
2023-04-13T01:46:46.203Z,3.30
2023-04-13T01:48:53.375Z,3.30
2023-04-13T01:50:59.408Z,2.90
2023-04-13T01:53:08.049Z,3.00
2023-04-13T01:55:13.599Z,2.80
2023-04-13T01:57:17.569Z,3.20
2023-04-13T01:59:22.657Z,2.93
2023-04-13T02:01:27.094Z,3.73
2023-04-13T02:03:30.553Z,4.50
2023-04-13T02:05:33.708Z,4.57
2023-04-13T02:07:37.200Z,4.33
2023-04-13T02:09:39.986Z,3.40
2023-04-13T02:11:44.099Z,3.10
2023-04-13T02:13:47.357Z,2.73
2023-04-13T02:15:50.444Z,3.03
2023-04-13T02:17:54.619Z,3.07
2023-04-13T02:19:58.148Z,3.67
2023-04-13T02:22:01.260Z,2.87
2023-04-13T02:24:04.395Z,3.10
2023-04-13T02:26:08.518Z,2.80
2023-04-13T02:28:11.340Z,2.77
2023-04-13T02:30:14.275Z,2.70
2023-04-13T02:32:17.179Z,3.10
2023-04-13T02:34:21.310Z,2.73
2023-04-13T02:36:24.958Z,2.80
2023-04-13T02:38:28.839Z,2.70
2023-04-13T02:40:31.746Z,2.87
2023-04-13T02:42:34.558Z,2.97
2023-04-13T02:44:38.649Z,2.90
2023-04-13T02:46:41.677Z,2.60
2023-04-13T02:48:44.919Z,2.90
2023-04-13T02:50:49.244Z,3.00
2023-04-13T02:52:53.643Z,2.60
2023-04-13T02:54:56.875Z,2.50
2023-04-13T02:57:01.784Z,2.50
2023-04-13T02:59:06.357Z,2.63
2023-04-13T03:01:12.280Z,2.80
2023-04-13T03:03:17.107Z,2.80
2023-04-13T03:05:20.134Z,2.77
2023-04-13T03:07:24.605Z,2.57
2023-04-13T03:09:27.422Z,2.40
2023-04-13T03:11:30.225Z,2.70
2023-04-13T03:13:32.964Z,2.50
2023-04-13T03:15:36.908Z,2.43
2023-04-13T03:17:40.559Z,2.47
2023-04-13T03:19:46.484Z,2.67
2023-04-13T03:21:50.057Z,2.50
2023-04-13T03:23:54.113Z,2.60
2023-04-13T03:25:56.921Z,2.63
2023-04-13T03:27:59.697Z,2.27
2023-04-13T03:30:02.721Z,2.50
2023-04-13T03:32:06.351Z,2.23
2023-04-13T03:34:09.181Z,1.90
2023-04-13T03:36:12.394Z,1.63
2023-04-13T03:38:15.222Z,1.53
2023-04-13T03:40:19.488Z,1.57
2023-04-13T03:42:22.261Z,1.70
2023-04-13T03:44:25.044Z,1.80
2023-04-13T03:46:28.427Z,1.60
2023-04-13T03:48:31.276Z,1.50
2023-04-13T03:50:34.067Z,1.50
2023-04-13T03:52:36.880Z,1.33
2023-04-13T03:54:40.509Z,1.30
2023-04-13T03:56:44.693Z,1.40
2023-04-13T03:58:47.590Z,1.23
2023-04-13T04:00:50.864Z,1.37
2023-04-13T04:02:53.869Z,1.37
2023-04-13T04:04:56.935Z,1.40
2023-04-13T04:06:59.765Z,1.33
2023-04-13T04:09:02.573Z,1.23
2023-04-13T04:11:05.934Z,1.50
2023-04-13T04:13:10.132Z,1.20
2023-04-13T04:15:12.893Z,1.20
2023-04-13T04:17:15.714Z,1.50
2023-04-13T04:19:18.560Z,1.60
2023-04-13T04:21:22.559Z,1.47
2023-04-13T04:23:28.274Z,1.27
2023-04-13T04:25:31.673Z,1.30
2023-04-13T04:27:38.552Z,1.60
2023-04-13T04:29:49.177Z,1.70
2023-04-13T04:31:53.785Z,1.50
2023-04-13T04:33:57.212Z,1.80
2023-04-13T04:36:01.657Z,1.70
2023-04-13T04:38:05.456Z,2.07
2023-04-13T04:40:09.852Z,1.73
2023-04-13T04:42:12.715Z,1.90
2023-04-13T04:44:16.800Z,1.60
2023-04-13T04:46:22.162Z,1.57
2023-04-13T04:48:26.653Z,2.00
2023-04-13T04:50:29.562Z,2.07
2023-04-13T04:52:34.242Z,2.27
2023-04-13T04:54:37.058Z,1.40
2023-04-13T04:56:39.837Z,2.90
2023-04-13T04:58:42.624Z,1.47
2023-04-13T05:00:45.721Z,1.60
2023-04-13T05:02:50.871Z,1.60
2023-04-13T05:04:54.438Z,1.60
2023-04-13T05:06:57.635Z,1.60
2023-04-13T05:09:01.987Z,1.80
2023-04-13T05:11:07.205Z,1.80
2023-04-13T05:13:09.974Z,1.80
2023-04-13T05:15:13.489Z,2.07
2023-04-13T05:17:18.140Z,1.30
2023-04-13T05:19:22.330Z,1.37
2023-04-13T05:21:26.649Z,1.50
2023-04-13T05:23:29.470Z,1.30
2023-04-13T05:25:32.516Z,1.70
2023-04-13T05:27:35.600Z,1.80
2023-04-13T05:29:38.523Z,2.00
2023-04-13T05:31:41.401Z,1.20
2023-04-13T05:33:44.316Z,1.33
2023-04-13T05:35:48.499Z,1.80
2023-04-13T05:37:51.296Z,1.73
2023-04-13T05:39:54.361Z,1.70
2023-04-13T05:41:57.492Z,1.50
2023-04-13T05:44:00.800Z,1.30
2023-04-13T05:46:03.757Z,1.50
2023-04-13T05:48:07.279Z,3.80
2023-04-13T05:50:11.089Z,1.40
2023-04-13T05:52:15.286Z,1.50
2023-04-13T05:54:18.547Z,1.50
2023-04-13T05:56:21.972Z,1.37
2023-04-13T05:58:26.275Z,1.50
2023-04-13T06:00:29.695Z,1.57
2023-04-13T06:02:34.843Z,1.30
2023-04-13T06:04:38.069Z,1.13
2023-04-13T06:06:41.225Z,1.43
2023-04-13T06:08:45.349Z,1.40
2023-04-13T06:10:48.133Z,1.20
2023-04-13T06:12:52.516Z,1.33
2023-04-13T06:14:55.322Z,1.40
2023-04-13T06:16:58.396Z,1.30
2023-04-13T06:19:01.368Z,1.23
2023-04-13T06:21:04.691Z,1.30
2023-04-13T06:23:07.716Z,1.20
2023-04-13T06:25:12.162Z,1.40
2023-04-13T06:27:15.432Z,1.40
2023-04-13T06:29:18.323Z,1.30
2023-04-13T06:31:23.221Z,2.60
2023-04-13T06:33:26.396Z,1.70
2023-04-13T06:35:30.489Z,2.03
2023-04-13T06:37:33.742Z,1.30
2023-04-13T06:39:37.800Z,1.50
2023-04-13T06:41:42.080Z,1.43
2023-04-13T06:43:45.263Z,1.20
2023-04-13T06:45:49.331Z,1.50
2023-04-13T06:47:53.893Z,1.40
2023-04-13T06:49:56.717Z,1.50
2023-04-13T06:51:59.502Z,1.70
2023-04-13T06:54:02.753Z,1.83
2023-04-13T06:56:06.173Z,1.27
2023-04-13T06:58:10.265Z,1.47
2023-04-13T07:00:28.888Z,1.50
2023-04-13T07:02:32.897Z,1.20
2023-04-13T07:04:36.017Z,1.53
2023-04-13T07:06:38.965Z,1.10
2023-04-13T07:08:41.765Z,1.40
2023-04-13T07:10:44.568Z,1.40
2023-04-13T07:12:47.357Z,1.30
2023-04-13T07:14:51.731Z,1.30
2023-04-13T07:16:54.872Z,1.60
2023-04-13T07:19:00.986Z,1.30
2023-04-13T07:21:04.053Z,1.00
2023-04-13T07:23:07.445Z,1.53
2023-04-13T07:25:10.627Z,1.20
2023-04-13T07:27:15.611Z,1.50
2023-04-13T07:29:18.414Z,1.27
2023-04-13T07:31:22.858Z,1.67
2023-04-13T07:33:25.789Z,2.87
2023-04-13T07:35:29.220Z,1.60
2023-04-13T07:37:32.240Z,1.50
2023-04-13T07:39:35.285Z,1.70
2023-04-13T07:41:38.559Z,1.90
2023-04-13T07:43:41.720Z,1.30
2023-04-13T07:45:44.570Z,1.27
2023-04-13T07:47:48.832Z,1.47
2023-04-13T07:49:51.676Z,1.47
2023-04-13T07:51:55.027Z,1.40
2023-04-13T07:53:57.803Z,1.17
2023-04-13T07:56:00.922Z,1.30
2023-04-13T07:58:03.734Z,1.60
2023-04-13T08:00:08.313Z,1.50
2023-04-13T08:02:11.301Z,1.50
2023-04-13T08:04:15.848Z,1.53
2023-04-13T08:06:21.148Z,1.60
2023-04-13T08:08:24.888Z,1.40
2023-04-13T08:10:27.690Z,1.40
2023-04-13T08:12:31.256Z,1.80
2023-04-13T08:14:34.012Z,1.57
2023-04-13T08:16:37.236Z,1.30
2023-04-13T08:18:40.258Z,1.50
2023-04-13T08:20:44.352Z,1.10
2023-04-13T08:22:47.119Z,1.30
2023-04-13T08:24:50.038Z,1.60
2023-04-13T08:26:54.953Z,1.40
2023-04-13T08:28:58.021Z,1.57
2023-04-13T08:31:01.150Z,1.33
2023-04-13T08:33:04.129Z,1.50
2023-04-13T08:35:09.594Z,1.77
2023-04-13T08:37:16.043Z,1.50
2023-04-13T08:39:18.991Z,1.20
2023-04-13T08:41:23.559Z,1.40
2023-04-13T08:43:26.895Z,1.47
2023-04-13T08:45:30.796Z,1.40
2023-04-13T08:47:37.559Z,1.50
2023-04-13T08:49:41.516Z,1.50
2023-04-13T08:51:47.119Z,1.57
2023-04-13T08:53:54.762Z,1.50
2023-04-13T08:55:59.403Z,1.40
2023-04-13T08:58:06.369Z,1.30
2023-04-13T09:00:16.234Z,1.40
2023-04-13T09:02:23.862Z,1.30
2023-04-13T09:04:33.370Z,1.30
2023-04-13T09:06:39.940Z,1.33
2023-04-13T09:08:46.234Z,1.50
2023-04-13T09:10:51.226Z,1.27
2023-04-13T09:12:54.008Z,1.50
2023-04-13T09:14:56.828Z,1.33
2023-04-13T09:16:59.603Z,1.40
2023-04-13T09:19:02.655Z,1.47
2023-04-13T09:21:05.594Z,1.53
2023-04-13T09:23:17.872Z,1.30
2023-04-13T09:25:22.645Z,1.50
2023-04-13T09:27:26.790Z,1.07
2023-04-13T09:29:29.543Z,1.20
2023-04-13T09:31:35.066Z,1.30
2023-04-13T09:33:46.843Z,1.20
2023-04-13T09:35:49.852Z,1.30
2023-04-13T09:37:56.047Z,1.10
2023-04-13T09:40:10.508Z,1.30
2023-04-13T09:42:18.093Z,1.40
2023-04-13T09:44:24.605Z,1.17
2023-04-13T09:46:28.045Z,1.13
2023-04-13T09:48:31.849Z,1.30
2023-04-13T09:50:36.931Z,1.40
2023-04-13T09:52:39.781Z,1.13
2023-04-13T09:55:02.800Z,1.20
2023-04-13T09:57:05.764Z,1.10
2023-04-13T09:59:10.333Z,1.50
2023-04-13T10:01:15.575Z,1.50
2023-04-13T10:03:22.274Z,1.33
2023-04-13T10:05:28.409Z,1.40
2023-04-13T10:07:36.990Z,1.40
2023-04-13T10:09:41.665Z,1.37
2023-04-13T10:11:47.343Z,1.00
2023-04-13T10:13:54.342Z,1.00
2023-04-13T10:16:23.030Z,1.33
2023-04-13T10:18:36.722Z,1.10
2023-04-13T10:20:40.426Z,1.10
2023-04-13T10:22:45.899Z,1.03
2023-04-13T10:24:48.866Z,0.93
2023-04-13T10:26:56.180Z,1.13
2023-04-13T10:29:00.734Z,1.00
2023-04-13T10:31:05.647Z,1.10
2023-04-13T10:33:11.492Z,1.13
2023-04-13T10:35:15.859Z,1.10
2023-04-13T10:37:21.157Z,1.00
2023-04-13T10:39:27.978Z,0.97
2023-04-13T10:41:31.148Z,1.10
2023-04-13T10:43:34.891Z,1.07
2023-04-13T10:45:37.950Z,1.27
2023-04-13T10:47:40.878Z,1.00
2023-04-13T10:49:46.660Z,1.03
2023-04-13T10:51:49.431Z,1.00
2023-04-13T10:53:52.310Z,0.90
2023-04-13T10:55:55.328Z,1.07
2023-04-13T10:57:59.364Z,1.07
2023-04-13T11:00:03.935Z,0.80
2023-04-13T11:02:10.346Z,0.90
2023-04-13T11:04:16.154Z,1.10
2023-04-13T11:06:23.017Z,0.80
2023-04-13T11:08:27.863Z,0.90
2023-04-13T11:10:32.267Z,0.93
2023-04-13T11:12:35.052Z,0.90
2023-04-13T11:14:39.253Z,1.10
2023-04-13T11:16:48.317Z,0.83
2023-04-13T11:19:01.965Z,1.07
2023-04-13T11:21:08.530Z,1.00
2023-04-13T11:23:18.192Z,1.10
2023-04-13T11:25:21.125Z,1.10
2023-04-13T11:27:25.257Z,1.20
2023-04-13T11:29:28.201Z,1.20
2023-04-13T11:31:39.311Z,1.77
2023-04-13T11:33:44.651Z,1.37
2023-04-13T11:35:50.313Z,0.70
2023-04-13T11:37:54.520Z,0.80
2023-04-13T11:40:03.323Z,1.27
2023-04-13T11:42:07.394Z,1.00
2023-04-13T11:44:12.387Z,0.97
2023-04-13T11:46:16.298Z,1.10
2023-04-13T11:48:20.700Z,0.77
2023-04-13T11:50:25.563Z,0.90
2023-04-13T11:52:28.468Z,0.90
2023-04-13T11:54:32.369Z,1.00
2023-04-13T11:56:36.952Z,1.50
2023-04-13T11:58:40.476Z,1.20
2023-04-13T12:00:43.845Z,1.00
2023-04-13T12:03:01.113Z,1.07
2023-04-13T12:05:05.658Z,0.87
2023-04-13T12:07:13.991Z,1.10
2023-04-13T12:09:20.217Z,0.80
2023-04-13T12:11:41.484Z,1.00
2023-04-13T12:14:05.761Z,0.90
2023-04-13T12:16:17.605Z,0.80
2023-04-13T12:18:26.218Z,0.90
2023-04-13T12:20:39.616Z,0.90
2023-04-13T12:24:48.862Z,1.03
2023-04-13T12:28:59.933Z,1.20
2023-04-13T12:31:04.763Z,0.90
2023-04-13T12:33:08.296Z,0.80
2023-04-13T12:35:11.530Z,0.67
2023-04-13T12:37:14.399Z,0.50
2023-04-13T12:39:17.296Z,1.00
2023-04-13T12:41:20.053Z,0.60
2023-04-13T12:43:22.923Z,1.10
2023-04-13T12:45:28.403Z,0.90
2023-04-13T12:47:31.234Z,0.50
2023-04-13T12:49:34.015Z,0.50
2023-04-13T12:51:36.904Z,0.40
2023-04-13T12:53:39.762Z,0.40
2023-04-13T12:55:43.559Z,0.50
2023-04-13T12:57:46.938Z,0.33
2023-04-13T12:59:49.875Z,0.40
2023-04-13T13:01:54.008Z,0.50
2023-04-13T13:03:57.228Z,0.47
2023-04-13T13:06:00.189Z,0.60
2023-04-13T13:08:03.077Z,1.10
2023-04-13T13:10:14.982Z,0.80
2023-04-13T13:12:29.841Z,0.80
2023-04-13T13:14:32.711Z,0.50
2023-04-13T13:16:35.921Z,0.80
2023-04-13T13:18:50.283Z,0.70
2023-04-13T13:20:54.507Z,0.50
2023-04-13T13:22:57.720Z,0.60
2023-04-13T13:25:00.558Z,0.73
2023-04-13T13:27:34.163Z,0.70
2023-04-13T13:29:28.014Z,0.80
2023-04-13T13:31:31.348Z,0.87
2023-04-13T13:33:34.596Z,0.80
2023-04-13T13:35:38.722Z,0.90
2023-04-13T13:37:41.532Z,1.20
2023-04-13T13:39:44.443Z,1.00
2023-04-13T13:41:47.224Z,1.20
2023-04-13T13:43:50.060Z,0.70
2023-04-13T13:45:52.870Z,0.73
2023-04-13T13:47:58.251Z,0.87
2023-04-13T13:50:01.369Z,0.90
2023-04-13T13:52:06.006Z,0.70
2023-04-13T13:54:08.858Z,0.60
2023-04-13T13:56:11.653Z,0.70
2023-04-13T13:58:14.572Z,0.60
2023-04-13T14:00:19.719Z,0.70
2023-04-13T14:02:22.775Z,0.80
2023-04-13T14:04:25.912Z,0.70
2023-04-13T14:06:28.802Z,0.77
2023-04-13T14:08:32.912Z,0.57
2023-04-13T14:10:36.535Z,0.60
2023-04-13T14:12:41.027Z,0.77
2023-04-13T14:14:43.818Z,0.60
2023-04-13T14:16:46.972Z,0.67
2023-04-13T14:18:49.920Z,0.77
2023-04-13T14:20:53.166Z,0.60
2023-04-13T14:22:56.145Z,0.70
2023-04-13T14:25:01.745Z,0.80
2023-04-13T14:27:04.657Z,0.70
2023-04-13T14:29:08.935Z,1.00
2023-04-13T14:31:11.796Z,0.50
2023-04-13T14:33:14.740Z,0.50
2023-04-13T14:35:17.621Z,0.40
2023-04-13T14:37:22.936Z,0.40
2023-04-13T14:39:26.075Z,0.50
2023-04-13T14:41:30.239Z,0.50
2023-04-13T14:43:33.027Z,0.60
2023-04-13T14:45:35.877Z,0.90
2023-04-13T14:47:38.892Z,0.90
2023-04-13T14:49:41.946Z,0.80
2023-04-13T14:51:45.054Z,0.80
2023-04-13T14:53:48.048Z,0.93
2023-04-13T14:55:50.869Z,2.27
2023-04-13T14:57:56.793Z,3.10
2023-04-13T14:59:59.628Z,1.33
2023-04-13T15:02:02.470Z,1.37
2023-04-13T15:04:05.498Z,1.20
2023-04-13T15:06:10.107Z,1.20
2023-04-13T15:08:15.639Z,1.20
2023-04-13T15:10:19.137Z,1.00
2023-04-13T15:12:22.742Z,1.23
2023-04-13T15:14:27.099Z,1.20
2023-04-13T15:16:30.167Z,1.43
2023-04-13T15:18:33.010Z,1.00
2023-04-13T15:20:35.799Z,0.50
2023-04-13T15:22:38.719Z,0.70
2023-04-13T15:24:41.636Z,0.60
2023-04-13T15:26:44.426Z,1.13
2023-04-13T15:28:47.636Z,0.70
2023-04-13T15:30:52.941Z,0.60
2023-04-13T15:32:56.950Z,0.40
2023-04-13T15:34:59.764Z,0.57
2023-04-13T15:37:02.551Z,0.50
2023-04-13T15:39:06.423Z,0.50
2023-04-13T15:41:10.517Z,0.40
2023-04-13T15:43:13.361Z,0.67
2023-04-13T15:45:16.489Z,0.50
2023-04-13T15:47:22.688Z,0.50
2023-04-13T15:49:26.266Z,0.50
2023-04-13T15:51:29.576Z,0.57
2023-04-13T15:53:32.480Z,0.50
2023-04-13T15:55:36.618Z,0.80
2023-04-13T15:57:40.044Z,0.70
2023-04-13T15:59:43.383Z,0.53
2023-04-13T16:01:47.923Z,0.70
2023-04-13T16:03:52.286Z,0.50
2023-04-13T16:05:55.309Z,0.67
2023-04-13T16:07:58.575Z,0.70
2023-04-13T16:10:02.025Z,0.63
2023-04-13T16:12:07.802Z,0.50
2023-04-13T16:14:10.648Z,0.50
2023-04-13T16:16:14.677Z,0.40
2023-04-13T16:18:18.578Z,0.47
2023-04-13T16:20:22.790Z,0.50
2023-04-13T16:22:26.193Z,0.50
2023-04-13T16:24:29.264Z,0.43
2023-04-13T16:26:32.745Z,0.50
2023-04-13T16:28:37.327Z,0.70
2023-04-13T16:30:41.860Z,0.73
2023-04-13T16:32:45.517Z,1.70
2023-04-13T16:34:48.650Z,3.13
2023-04-13T16:36:53.241Z,1.20
2023-04-13T16:38:56.240Z,0.93
2023-04-13T16:40:59.258Z,1.10
2023-04-13T16:43:04.848Z,0.93
2023-04-13T16:45:10.952Z,0.60
2023-04-13T16:47:15.915Z,0.80
2023-04-13T16:49:18.750Z,0.90
2023-04-13T16:51:21.594Z,1.37
2023-04-13T16:53:25.952Z,1.63
2023-04-13T16:55:29.012Z,0.90
2023-04-13T16:57:31.836Z,0.70
2023-04-13T16:59:34.689Z,0.50
2023-04-13T17:01:39.617Z,0.70
2023-04-13T17:03:43.018Z,0.70
2023-04-13T17:05:46.414Z,0.60
2023-04-13T17:07:49.631Z,0.70
2023-04-13T17:09:53.783Z,0.80
2023-04-13T17:11:56.853Z,0.60
2023-04-13T17:13:59.862Z,0.70
2023-04-13T17:16:02.772Z,3.73
2023-04-13T17:18:05.817Z,6.70
2023-04-13T17:20:10.099Z,27.13
2023-04-13T17:22:13.010Z,9.37
2023-04-13T17:24:15.990Z,3.27
2023-04-13T17:26:20.161Z,6.37
2023-04-13T17:28:24.348Z,3.20
2023-04-13T17:30:28.020Z,2.70
2023-04-13T17:32:30.838Z,1.00
2023-04-13T17:34:33.900Z,1.07
2023-04-13T17:36:37.010Z,1.30
2023-04-13T17:38:39.999Z,1.13
2023-04-13T17:40:42.772Z,1.40
2023-04-13T17:42:47.123Z,1.10
2023-04-13T17:44:50.259Z,1.10
2023-04-13T17:46:54.730Z,0.93
2023-04-13T17:48:59.038Z,1.07
2023-04-13T17:51:02.245Z,0.97
2023-04-13T17:53:05.340Z,1.00
2023-04-13T17:55:08.755Z,1.20
2023-04-13T17:57:11.545Z,1.60
2023-04-13T17:59:16.291Z,1.37
2023-04-13T18:01:21.507Z,1.60
2023-04-13T18:03:24.571Z,1.13
2023-04-13T18:05:27.779Z,1.47
2023-04-13T18:07:30.764Z,1.20
2023-04-13T18:09:33.594Z,1.23
2023-04-13T18:11:39.295Z,1.40
2023-04-13T18:13:42.232Z,1.97
2023-04-13T18:15:48.640Z,1.30
2023-04-13T18:17:51.686Z,1.10
2023-04-13T18:19:54.618Z,1.10
2023-04-13T18:21:57.586Z,0.83
2023-04-13T18:24:02.356Z,1.00
2023-04-13T18:26:05.757Z,1.00
2023-04-13T18:28:08.498Z,0.90
2023-04-13T18:30:12.949Z,0.80
2023-04-13T18:32:17.396Z,0.90
2023-04-13T18:34:20.352Z,1.00
2023-04-13T18:36:24.599Z,0.80
2023-04-13T18:38:28.113Z,0.90
2023-04-13T18:40:30.855Z,0.80
2023-04-13T18:42:34.046Z,1.00
2023-04-13T18:44:36.940Z,0.90
2023-04-13T18:46:39.765Z,1.00
2023-04-13T18:48:44.162Z,0.90
2023-04-13T18:50:48.274Z,0.90
2023-04-13T18:52:51.070Z,1.00
2023-04-13T18:54:53.899Z,1.17
2023-04-13T18:56:57.070Z,1.10
2023-04-13T18:58:59.827Z,1.03
2023-04-13T19:01:02.675Z,0.90
2023-04-13T19:03:05.732Z,1.03
2023-04-13T19:05:12.791Z,1.10
2023-04-13T19:07:17.278Z,1.20
2023-04-13T19:09:20.074Z,1.10
2023-04-13T19:11:27.331Z,1.10
2023-04-13T19:13:30.470Z,0.90
2023-04-13T19:15:33.229Z,1.10
2023-04-13T19:17:36.258Z,1.30
2023-04-13T19:19:39.039Z,1.40
2023-04-13T19:21:43.313Z,1.30
2023-04-13T19:23:47.500Z,1.67
2023-04-13T19:25:50.312Z,1.60
2023-04-13T19:27:53.480Z,1.80
2023-04-13T19:29:57.065Z,43.90
2023-04-13T19:32:00.272Z,55.40
2023-04-13T19:34:03.168Z,33.00
2023-04-13T19:36:09.181Z,15.07
2023-04-13T19:38:13.293Z,4.70
2023-04-13T19:40:16.163Z,3.00
2023-04-13T19:42:18.965Z,1.97
2023-04-13T19:44:21.926Z,2.13
2023-04-13T19:46:24.829Z,1.93
2023-04-13T19:48:28.034Z,1.50
2023-04-13T19:50:31.269Z,1.20
2023-04-13T19:52:34.185Z,1.50
2023-04-13T19:54:38.268Z,1.80
2023-04-13T19:56:41.152Z,1.57
2023-04-13T19:58:43.878Z,1.53
2023-04-13T20:00:47.286Z,1.73
2023-04-13T20:02:51.689Z,2.93
2023-04-13T20:04:54.646Z,3.10
2023-04-13T20:06:57.511Z,4.03
2023-04-13T20:09:08.295Z,19.07
2023-04-13T20:11:12.902Z,11.50
2023-04-13T20:13:15.823Z,8.97
2023-04-13T20:15:20.811Z,8.40
2023-04-13T20:17:23.603Z,4.43
2023-04-13T20:19:26.359Z,2.87
2023-04-13T20:21:30.972Z,2.20
2023-04-13T20:23:35.445Z,2.70
2023-04-13T20:25:39.419Z,3.27
2023-04-13T20:27:44.006Z,3.50
2023-04-13T20:29:47.921Z,2.03
2023-04-13T20:31:51.479Z,2.13
2023-04-13T20:33:54.549Z,2.13
2023-04-13T20:35:57.466Z,2.40
2023-04-13T20:38:00.887Z,2.13
2023-04-13T20:40:07.150Z,2.60
2023-04-13T20:42:11.471Z,2.27
2023-04-13T20:44:24.288Z,2.07
2023-04-13T20:46:33.876Z,2.10
2023-04-13T20:50:47.759Z,1.70
2023-04-13T20:52:53.140Z,1.77
2023-04-13T20:54:56.168Z,2.13
2023-04-13T20:56:59.015Z,2.00
2023-04-13T20:59:02.543Z,2.13
2023-04-13T21:01:06.828Z,2.07
2023-04-13T21:03:09.747Z,2.00
2023-04-13T21:05:12.698Z,2.07
2023-04-13T21:07:16.231Z,1.90
2023-04-13T21:09:18.995Z,4.93
2023-04-13T21:11:22.324Z,2.30
2023-04-13T21:13:25.342Z,10.13
2023-04-13T21:15:28.090Z,13.93
2023-04-13T21:17:33.118Z,4.10
2023-04-13T21:19:37.776Z,6.93
2023-04-13T21:21:40.948Z,2.40
2023-04-13T21:23:43.705Z,2.67
2023-04-13T21:25:47.705Z,2.47
2023-04-13T21:27:50.551Z,2.60
2023-04-13T21:29:53.341Z,2.90
2023-04-13T21:31:56.096Z,2.37
2023-04-13T21:34:00.507Z,2.53
2023-04-13T21:38:14.415Z,2.63
2023-04-13T21:40:18.314Z,2.70
2023-04-13T21:42:22.718Z,2.87
2023-04-13T21:44:29.807Z,2.33
2023-04-13T21:46:32.899Z,2.00
2023-04-13T21:48:35.736Z,2.23
2023-04-13T21:50:39.867Z,1.97
2023-04-13T21:52:43.242Z,2.53
2023-04-13T21:54:46.003Z,1.83
2023-04-13T21:56:49.150Z,2.40
2023-04-13T21:58:52.205Z,2.27
2023-04-13T22:00:55.057Z,2.37
2023-04-13T22:02:57.906Z,2.13
2023-04-13T22:05:00.811Z,2.60
2023-04-13T22:07:04.956Z,2.17
2023-04-13T22:09:07.746Z,2.97
2023-04-13T22:11:10.717Z,2.50
2023-04-13T22:13:13.526Z,2.60
2023-04-13T22:15:16.586Z,2.43
2023-04-13T22:17:19.410Z,2.53
2023-04-13T22:19:22.246Z,2.40
2023-04-13T22:21:25.061Z,2.70
2023-04-13T22:23:29.971Z,2.70
2023-04-13T22:25:32.783Z,2.47
2023-04-13T22:27:37.479Z,2.90
2023-04-13T22:29:40.331Z,3.47
2023-04-13T22:31:43.120Z,2.80
2023-04-13T22:33:45.977Z,2.60
2023-04-13T22:35:50.635Z,2.30
2023-04-13T22:37:53.591Z,2.20
2023-04-13T22:39:59.818Z,2.50
2023-04-13T22:42:02.584Z,2.17
2023-04-13T22:44:05.660Z,2.47
2023-04-13T22:46:08.836Z,2.23
2023-04-13T22:48:11.664Z,2.27
2023-04-13T22:50:14.454Z,2.30
2023-04-13T22:52:19.099Z,2.30
2023-04-13T22:54:21.909Z,2.07
2023-04-13T22:56:25.990Z,2.50
2023-04-13T22:58:29.373Z,2.37
2023-04-13T23:00:32.182Z,2.40
2023-04-13T23:02:35.166Z,2.40
2023-04-13T23:04:39.262Z,2.60
2023-04-13T23:06:42.136Z,2.70
2023-04-13T23:08:44.897Z,2.30
2023-04-13T23:10:47.833Z,2.67
2023-04-13T23:12:52.391Z,2.57
2023-04-13T23:14:55.156Z,2.03
2023-04-13T23:16:59.092Z,2.20
2023-04-13T23:19:02.119Z,2.10
2023-04-13T23:21:12.168Z,2.43
2023-04-13T23:23:14.963Z,2.13
2023-04-13T23:25:17.798Z,2.33
2023-04-13T23:27:20.839Z,2.00
2023-04-13T23:29:25.035Z,2.27
2023-04-13T23:31:27.814Z,2.10
2023-04-13T23:33:30.887Z,2.23
2023-04-13T23:35:33.696Z,2.10
2023-04-13T23:37:36.498Z,2.30
2023-04-13T23:39:39.333Z,2.20
2023-04-13T23:41:42.049Z,2.00
2023-04-13T23:43:47.154Z,2.00
2023-04-13T23:45:52.280Z,1.97
2023-04-13T23:47:55.567Z,2.10
2023-04-13T23:49:58.410Z,2.10
2023-04-13T23:52:01.620Z,1.87
2023-04-13T23:54:04.681Z,2.20
2023-04-13T23:56:08.090Z,1.93
2023-04-13T23:58:11.009Z,1.97
